Valdese, North Carolina
Current Conditions -  °F | °C
As of 3:35 AM on Tuesday 21 Oct 2014 (Local Time) from KMRN Reporting Station
Haze Haze  
Wind Chill: 44°   Ceiling: 700
Heat Index: 44°   Visibility: 1mi
Dew Point: 44°   Wind: 0mph
Humidity: 100%   Direction: NA
Pressure: 30"   Gusts: NA
Location:  35.74°N, 81.56°W
Report Text: KMRN 210735Z AUTO 00000KT 1SM BR VV007 06/06 A3000 RMK AO2 T00640064
Loading
Personal Weather Stations






























Interactive Weather Map
Tropical Storm Tracking
New forecast layout! Learn more

10-Day Weather Forecast

Advertisements
Track Severe Weather on mobile